createdAt,value
2023-01-18T00:00:52.386Z,6.07
2023-01-18T00:05:50.010Z,6.68
2023-01-18T00:08:18.898Z,5.50
2023-01-18T00:10:47.166Z,5.07
2023-01-18T00:13:15.457Z,5.72
2023-01-18T00:15:43.691Z,5.10
2023-01-18T00:18:12.416Z,6.95
2023-01-18T00:20:40.677Z,5.15
2023-01-18T00:23:10.292Z,6.13
2023-01-18T00:25:38.564Z,4.23
2023-01-18T00:28:06.880Z,5.05
2023-01-18T00:30:35.138Z,5.47
2023-01-18T00:33:03.403Z,4.90
2023-01-18T00:35:32.112Z,6.03
2023-01-18T00:38:00.377Z,4.57
2023-01-18T00:40:30.315Z,8.02
2023-01-18T00:43:16.165Z,5.80
2023-01-18T00:45:44.475Z,5.85
2023-01-18T00:48:12.765Z,5.38
2023-01-18T00:50:41.056Z,6.57
2023-01-18T00:53:09.316Z,6.88
2023-01-18T00:55:38.913Z,5.75
2023-01-18T00:58:07.245Z,7.38
2023-01-18T01:00:35.648Z,4.18
2023-01-18T01:03:03.930Z,5.15
2023-01-18T01:05:49.840Z,4.18
2023-01-18T01:08:18.120Z,4.95
2023-01-18T01:10:49.433Z,4.90
2023-01-18T01:13:36.974Z,6.57
2023-01-18T01:16:23.922Z,5.35
2023-01-18T01:19:10.290Z,5.35
2023-01-18T01:21:56.149Z,3.80
2023-01-18T01:24:41.946Z,4.78
2023-01-18T01:27:11.764Z,4.78
2023-01-18T01:29:40.191Z,5.82
2023-01-18T01:32:08.733Z,6.00
2023-01-18T01:34:37.219Z,4.60
2023-01-18T01:37:05.831Z,4.75
2023-01-18T01:39:34.077Z,5.57
2023-01-18T01:42:02.405Z,4.78
2023-01-18T01:44:56.319Z,6.07
2023-01-18T01:47:33.193Z,4.65
2023-01-18T01:50:04.930Z,6.25
2023-01-18T01:52:35.342Z,6.80
2023-01-18T01:55:06.487Z,6.07
2023-01-18T01:57:37.943Z,6.53
2023-01-18T02:00:10.613Z,4.57
2023-01-18T02:02:39.847Z,4.78
2023-01-18T02:05:09.438Z,6.32
2023-01-18T02:07:38.003Z,6.55
2023-01-18T02:10:07.676Z,6.28
2023-01-18T02:12:36.557Z,6.10
2023-01-18T02:15:07.586Z,6.57
2023-01-18T02:17:46.975Z,6.15
2023-01-18T02:20:32.670Z,4.63
2023-01-18T02:23:35.417Z,6.13
2023-01-18T02:26:54.306Z,6.75
2023-01-18T02:29:39.368Z,5.22
2023-01-18T02:32:24.540Z,5.03
2023-01-18T02:34:57.814Z,5.57
2023-01-18T02:37:31.062Z,5.78
2023-01-18T02:40:08.666Z,5.30
2023-01-18T02:42:55.959Z,4.70
2023-01-18T02:45:47.429Z,6.22
2023-01-18T02:48:16.219Z,5.18
2023-01-18T02:50:44.476Z,4.35
2023-01-18T02:53:14.685Z,4.85
2023-01-18T02:55:47.818Z,4.50
2023-01-18T02:58:18.746Z,4.80
2023-01-18T03:00:51.515Z,4.22
2023-01-18T03:03:21.391Z,5.65
2023-01-18T03:05:50.629Z,4.55
2023-01-18T03:08:23.391Z,4.47
2023-01-18T03:10:58.937Z,4.78
2023-01-18T03:13:32.651Z,4.38
2023-01-18T03:16:07.052Z,4.85
2023-01-18T03:19:00.665Z,5.72
2023-01-18T03:21:36.083Z,3.75
2023-01-18T03:24:07.066Z,3.88
2023-01-18T03:26:37.690Z,3.35
2023-01-18T03:32:12.278Z,4.55
2023-01-18T03:34:45.312Z,3.58
2023-01-18T03:37:17.584Z,4.95
2023-01-18T03:39:48.204Z,4.32
2023-01-18T03:42:19.172Z,4.53
2023-01-18T03:44:51.385Z,4.25
2023-01-18T03:47:21.329Z,3.83
2023-01-18T03:49:50.041Z,5.55
2023-01-18T03:52:19.930Z,4.90
2023-01-18T03:54:56.559Z,6.88
2023-01-18T03:57:28.855Z,3.80
2023-01-18T03:59:58.013Z,4.75
2023-01-18T04:02:28.181Z,4.28
2023-01-18T04:05:03.634Z,5.45
2023-01-18T04:07:32.208Z,3.72
2023-01-18T04:10:00.606Z,3.92
2023-01-18T04:12:29.051Z,4.35
2023-01-18T04:14:58.156Z,4.43
2023-01-18T04:17:28.105Z,4.03
2023-01-18T04:19:56.338Z,4.03
2023-01-18T04:22:24.795Z,4.38
2023-01-18T04:24:53.061Z,4.38
2023-01-18T04:27:24.147Z,2.92
2023-01-18T04:29:52.827Z,3.78
2023-01-18T04:32:21.237Z,4.28
2023-01-18T04:34:50.883Z,4.35
2023-01-18T04:37:19.169Z,4.83
2023-01-18T04:39:47.860Z,4.25
2023-01-18T04:42:16.286Z,4.45
2023-01-18T04:44:44.687Z,4.18
2023-01-18T04:47:13.005Z,4.20
2023-01-18T04:49:41.290Z,4.47
2023-01-18T04:52:11.019Z,4.35
2023-01-18T04:54:39.357Z,3.75
2023-01-18T04:57:07.664Z,4.32
2023-01-18T04:59:39.269Z,3.47
2023-01-18T05:02:07.601Z,3.97
2023-01-18T05:04:36.631Z,4.10
2023-01-18T05:07:04.953Z,4.10
2023-01-18T05:09:34.812Z,3.80
2023-01-18T05:12:03.131Z,5.93
2023-01-18T05:14:31.502Z,4.88
2023-01-18T05:16:59.856Z,3.92
2023-01-18T05:19:30.324Z,3.40
2023-01-18T05:21:58.626Z,3.85
2023-01-18T05:24:29.793Z,4.45
2023-01-18T05:27:00.013Z,5.63
2023-01-18T05:29:28.332Z,5.47
2023-01-18T05:31:56.593Z,4.10
2023-01-18T05:34:25.247Z,5.03
2023-01-18T05:36:53.471Z,5.00
2023-01-18T05:39:21.721Z,5.03
2023-01-18T05:41:50.032Z,5.47
2023-01-18T05:44:19.709Z,5.30
2023-01-18T05:46:47.984Z,7.93
2023-01-18T05:49:16.452Z,4.60
2023-01-18T05:51:44.812Z,4.05
2023-01-18T05:54:13.330Z,5.57
2023-01-18T05:56:42.161Z,3.63
2023-01-18T05:59:10.492Z,4.47
2023-01-18T06:01:40.188Z,5.28
2023-01-18T06:04:08.590Z,3.95
2023-01-18T06:06:36.904Z,3.58
2023-01-18T06:09:05.262Z,2.60
2023-01-18T06:11:33.516Z,3.60
2023-01-18T06:14:01.824Z,3.25
2023-01-18T06:16:30.376Z,4.15
2023-01-18T06:18:59.992Z,6.53
2023-01-18T06:21:28.245Z,4.23
2023-01-18T06:23:56.516Z,4.68
2023-01-18T06:26:24.861Z,4.60
2023-01-18T06:28:53.562Z,4.15
2023-01-18T06:31:21.875Z,3.92
2023-01-18T06:33:50.225Z,3.58
2023-01-18T06:36:19.889Z,5.05
2023-01-18T06:38:48.186Z,3.77
2023-01-18T06:41:17.171Z,3.63
2023-01-18T06:43:45.483Z,3.80
2023-01-18T06:46:13.821Z,4.10
2023-01-18T06:48:42.109Z,4.47
2023-01-18T06:51:12.484Z,4.35
2023-01-18T06:53:42.252Z,4.10
2023-01-18T06:56:10.761Z,4.60
2023-01-18T06:58:39.032Z,4.53
2023-01-18T07:01:08.150Z,4.30
2023-01-18T07:03:36.455Z,5.93
2023-01-18T07:06:06.366Z,7.20
2023-01-18T07:08:35.519Z,7.32
2023-01-18T07:11:09.698Z,6.68
2023-01-18T07:13:40.014Z,6.95
2023-01-18T07:16:09.275Z,5.63
2023-01-18T07:18:37.547Z,7.13
2023-01-18T07:21:08.101Z,9.32
2023-01-18T07:23:37.050Z,6.20
2023-01-18T07:26:06.566Z,17.05
2023-01-18T07:28:37.283Z,9.35
2023-01-18T07:31:08.008Z,7.88
2023-01-18T07:33:37.002Z,6.65
2023-01-18T07:36:07.420Z,12.80
2023-01-18T07:38:35.775Z,8.85
2023-01-18T07:41:06.095Z,5.45
2023-01-18T07:43:37.490Z,4.88
2023-01-18T07:46:06.411Z,5.22
2023-01-18T07:48:36.372Z,4.95
2023-01-18T07:51:08.337Z,3.90
2023-01-18T07:53:37.569Z,3.88
2023-01-18T07:56:07.577Z,5.82
2023-01-18T07:58:37.473Z,4.20
2023-01-18T08:01:06.467Z,4.25
2023-01-18T08:03:34.904Z,4.60
2023-01-18T08:06:04.082Z,5.35
2023-01-18T08:08:32.536Z,4.05
2023-01-18T08:11:02.279Z,4.43
2023-01-18T08:13:30.960Z,8.43
2023-01-18T08:16:02.761Z,3.42
2023-01-18T08:18:31.119Z,4.30
2023-01-18T08:20:59.476Z,4.00
2023-01-18T08:23:27.791Z,8.02
2023-01-18T08:25:56.514Z,3.85
2023-01-18T08:28:24.816Z,4.38
2023-01-18T08:30:53.107Z,4.22
2023-01-18T08:33:22.731Z,3.60
2023-01-18T08:35:50.994Z,4.32
2023-01-18T08:38:19.291Z,6.05
2023-01-18T08:40:47.533Z,3.47
2023-01-18T08:43:15.825Z,2.70
2023-01-18T08:45:44.100Z,2.22
2023-01-18T08:48:12.643Z,2.35
2023-01-18T08:50:43.037Z,2.40
2023-01-18T08:53:11.453Z,2.90
2023-01-18T08:55:40.556Z,3.83
2023-01-18T08:58:09.272Z,2.60
2023-01-18T09:00:37.505Z,2.60
2023-01-18T09:03:06.874Z,3.13
2023-01-18T09:05:36.604Z,2.45
2023-01-18T09:08:06.652Z,2.30
2023-01-18T09:10:37.503Z,2.42
2023-01-18T09:13:06.440Z,2.72
2023-01-18T09:15:34.690Z,2.72
2023-01-18T09:18:06.161Z,2.75
2023-01-18T09:20:36.443Z,2.20
2023-01-18T09:23:07.103Z,2.28
2023-01-18T09:25:36.465Z,3.50
2023-01-18T09:28:07.013Z,4.25
2023-01-18T09:30:35.956Z,3.13
2023-01-18T09:33:04.493Z,3.30
2023-01-18T09:35:33.127Z,4.22
2023-01-18T09:38:01.384Z,3.00
2023-01-18T09:40:41.757Z,3.72
2023-01-18T09:43:17.498Z,2.80
2023-01-18T09:45:47.509Z,2.05
2023-01-18T09:48:25.520Z,4.80
2023-01-18T09:50:54.330Z,4.47
2023-01-18T09:53:31.831Z,3.35
2023-01-18T09:56:06.766Z,2.45
2023-01-18T09:58:42.709Z,2.78
2023-01-18T10:01:14.133Z,3.20
2023-01-18T10:03:49.616Z,3.58
2023-01-18T10:06:23.228Z,2.70
2023-01-18T10:08:55.484Z,2.40
2023-01-18T10:11:31.465Z,3.13
2023-01-18T10:14:05.347Z,2.35
2023-01-18T10:16:34.767Z,2.45
2023-01-18T10:19:03.436Z,3.08
2023-01-18T10:21:38.488Z,2.50
2023-01-18T10:24:22.391Z,5.95
2023-01-18T10:26:54.852Z,2.70
2023-01-18T10:29:35.498Z,2.40
2023-01-18T10:32:06.488Z,6.25
2023-01-18T10:34:39.101Z,2.30
2023-01-18T10:37:14.530Z,3.22
2023-01-18T10:39:46.549Z,2.50
2023-01-18T10:42:19.016Z,2.00
2023-01-18T10:44:47.785Z,2.60
2023-01-18T10:47:18.393Z,2.40
2023-01-18T10:52:26.078Z,2.33
2023-01-18T10:54:58.203Z,2.50
2023-01-18T10:57:33.546Z,2.47
2023-01-18T11:00:02.134Z,3.08
2023-01-18T11:02:31.953Z,2.72
2023-01-18T11:05:04.319Z,2.70
2023-01-18T11:07:32.609Z,2.17
2023-01-18T11:10:06.517Z,2.40
2023-01-18T11:12:41.412Z,2.22
2023-01-18T11:15:30.622Z,3.13
2023-01-18T11:18:04.033Z,4.80
2023-01-18T11:20:35.172Z,2.83
2023-01-18T11:23:05.107Z,3.72
2023-01-18T11:25:38.912Z,3.50
2023-01-18T11:28:18.202Z,4.22
2023-01-18T11:30:52.930Z,5.78
2023-01-18T11:33:22.240Z,4.05
2023-01-18T11:35:55.131Z,4.32
2023-01-18T11:38:28.450Z,3.35
2023-01-18T11:41:16.577Z,3.08
2023-01-18T11:44:03.128Z,3.58
2023-01-18T11:46:39.029Z,4.40
2023-01-18T11:49:27.166Z,3.35
2023-01-18T11:51:58.746Z,3.65
2023-01-18T11:54:30.805Z,3.00
2023-01-18T11:57:02.291Z,5.22
2023-01-18T11:59:33.307Z,3.33
2023-01-18T12:02:32.117Z,3.42
2023-01-18T12:05:22.489Z,2.85
2023-01-18T12:08:02.057Z,3.40
2023-01-18T12:10:34.962Z,4.32
2023-01-18T12:13:13.068Z,4.35
2023-01-18T12:15:53.933Z,3.03
2023-01-18T12:18:43.569Z,3.30
2023-01-18T12:21:14.156Z,5.88
2023-01-18T12:29:27.869Z,6.47
2023-01-18T12:32:04.289Z,3.10
2023-01-18T12:34:39.964Z,3.72
2023-01-18T12:37:23.725Z,5.30
2023-01-18T12:39:58.730Z,3.58
2023-01-18T12:42:40.952Z,3.47
2023-01-18T12:45:19.093Z,3.40
2023-01-18T12:47:53.879Z,3.20
2023-01-18T12:50:25.230Z,4.13
2023-01-18T12:52:55.396Z,3.80
2023-01-18T12:55:25.649Z,4.93
2023-01-18T12:57:59.011Z,4.82
2023-01-18T13:00:33.152Z,4.00
2023-01-18T13:03:07.423Z,4.93
2023-01-18T13:05:44.095Z,3.75
2023-01-18T13:08:15.705Z,4.30
2023-01-18T13:10:44.665Z,5.57
2023-01-18T13:13:18.996Z,4.35
2023-01-18T13:15:52.652Z,4.60
2023-01-18T13:18:26.588Z,7.03
2023-01-18T13:21:05.542Z,5.90
2023-01-18T13:23:39.666Z,4.68
2023-01-18T13:26:21.052Z,4.68
2023-01-18T13:28:49.343Z,4.88
2023-01-18T13:31:17.727Z,6.20
2023-01-18T13:33:48.074Z,4.85
2023-01-18T13:36:17.937Z,5.82
2023-01-18T13:41:23.494Z,5.20
2023-01-18T13:44:06.661Z,5.43
2023-01-18T13:46:39.278Z,4.88
2023-01-18T13:49:38.576Z,5.63
2023-01-18T13:52:31.311Z,6.22
2023-01-18T13:55:03.599Z,5.15
2023-01-18T13:57:33.489Z,4.75
2023-01-18T14:00:02.490Z,5.10
2023-01-18T14:02:34.251Z,4.97
2023-01-18T14:05:09.210Z,4.90
2023-01-18T14:07:41.450Z,5.47
2023-01-18T14:10:25.206Z,5.60
2023-01-18T14:12:54.890Z,4.20
2023-01-18T14:15:29.755Z,4.83
2023-01-18T14:17:59.396Z,4.13
2023-01-18T14:20:51.490Z,5.20
2023-01-18T14:23:48.108Z,5.13
2023-01-18T14:26:18.326Z,4.90
2023-01-18T14:28:49.360Z,4.10
2023-01-18T14:31:21.051Z,5.93
2023-01-18T14:33:50.050Z,5.22
2023-01-18T14:36:25.350Z,6.32
2023-01-18T14:39:12.955Z,4.45
2023-01-18T14:41:43.388Z,4.82
2023-01-18T14:44:16.828Z,5.13
2023-01-18T14:46:50.206Z,5.45
2023-01-18T14:49:25.037Z,5.20
2023-01-18T14:51:55.330Z,4.95
2023-01-18T14:54:26.138Z,6.30
2023-01-18T14:57:01.670Z,3.75
2023-01-18T14:59:31.168Z,4.00
2023-01-18T15:02:00.658Z,5.10
2023-01-18T15:04:30.461Z,3.83
2023-01-18T15:07:01.485Z,5.53
2023-01-18T15:09:32.344Z,3.97
2023-01-18T15:12:02.718Z,6.03
2023-01-18T15:14:33.607Z,4.72
2023-01-18T15:17:03.096Z,3.90
2023-01-18T15:19:35.902Z,4.43
2023-01-18T15:22:07.646Z,4.90
2023-01-18T15:24:39.502Z,5.07
2023-01-18T15:27:12.841Z,6.00
2023-01-18T15:29:41.152Z,5.10
2023-01-18T15:32:14.910Z,5.80
2023-01-18T15:34:45.114Z,4.57
2023-01-18T15:37:16.869Z,7.13
2023-01-18T15:39:56.739Z,5.38
2023-01-18T15:42:26.571Z,5.80
2023-01-18T15:44:56.273Z,4.38
2023-01-18T15:47:26.035Z,6.10
2023-01-18T15:49:56.204Z,5.30
2023-01-18T15:52:45.087Z,5.43
2023-01-18T15:55:23.184Z,7.32
2023-01-18T15:57:57.411Z,6.50
2023-01-18T16:00:30.134Z,4.82
2023-01-18T16:02:58.552Z,6.65
2023-01-18T16:05:27.957Z,6.63
2023-01-18T16:08:17.828Z,6.32
2023-01-18T16:10:51.580Z,6.38
2023-01-18T16:13:33.830Z,5.35
2023-01-18T16:16:09.482Z,7.55
2023-01-18T16:18:37.862Z,5.15
2023-01-18T16:21:13.027Z,6.65
2023-01-18T16:23:46.897Z,6.55
2023-01-18T16:26:15.790Z,6.45
2023-01-18T16:28:44.128Z,7.50
2023-01-18T16:31:12.692Z,6.53
2023-01-18T16:33:41.089Z,6.63
2023-01-18T16:36:18.169Z,5.95
2023-01-18T16:38:47.910Z,6.18
2023-01-18T16:41:17.018Z,5.37
2023-01-18T16:43:45.403Z,7.53
2023-01-18T16:46:13.727Z,5.25
2023-01-18T16:48:42.114Z,6.70
2023-01-18T16:51:16.243Z,6.45
2023-01-18T16:53:44.568Z,6.10
2023-01-18T16:56:16.676Z,6.00
2023-01-18T16:58:45.118Z,6.00
2023-01-18T17:01:15.862Z,7.13
2023-01-18T17:03:44.722Z,6.97
2023-01-18T17:06:18.132Z,4.97
2023-01-18T17:08:47.650Z,4.45
2023-01-18T17:11:17.607Z,5.07
2023-01-18T17:13:47.791Z,4.90
2023-01-18T17:16:18.052Z,4.32
2023-01-18T17:18:46.579Z,5.03
2023-01-18T17:21:15.056Z,4.82
2023-01-18T17:23:43.484Z,3.85
2023-01-18T17:26:15.262Z,3.60
2023-01-18T17:28:45.224Z,4.97
2023-01-18T17:31:13.807Z,6.93
2023-01-18T17:33:43.529Z,6.15
2023-01-18T17:36:11.803Z,4.80
2023-01-18T17:38:40.097Z,5.10
2023-01-18T17:41:11.410Z,4.20
2023-01-18T17:43:41.708Z,7.03
2023-01-18T17:46:11.574Z,4.38
2023-01-18T17:48:39.911Z,5.07
2023-01-18T17:51:08.811Z,4.38
2023-01-18T17:53:37.543Z,4.93
2023-01-18T17:56:08.123Z,4.97
2023-01-18T18:01:10.283Z,3.60
2023-01-18T18:03:40.885Z,3.90
2023-01-18T18:06:11.103Z,5.78
2023-01-18T18:08:39.579Z,5.53
2023-01-18T18:11:09.083Z,5.00
2023-01-18T18:13:37.531Z,4.82
2023-01-18T18:16:07.487Z,4.63
2023-01-18T18:18:38.222Z,5.20
2023-01-18T18:21:09.050Z,4.75
2023-01-18T18:23:38.294Z,6.63
2023-01-18T18:26:07.464Z,3.95
2023-01-18T18:28:35.728Z,4.97
2023-01-18T18:31:04.125Z,4.85
2023-01-18T18:33:33.899Z,4.18
2023-01-18T18:36:03.001Z,4.60
2023-01-18T18:38:32.746Z,4.88
2023-01-18T18:41:04.084Z,5.30
2023-01-18T18:43:32.741Z,5.63
2023-01-18T18:46:00.998Z,6.45
2023-01-18T18:48:29.276Z,5.00
2023-01-18T18:50:58.080Z,4.70
2023-01-18T18:53:36.970Z,5.97
2023-01-18T18:56:09.702Z,7.43
2023-01-18T18:58:38.392Z,7.70
2023-01-18T19:01:07.668Z,6.22
2023-01-18T19:03:36.401Z,4.78
2023-01-18T19:06:04.876Z,7.80
2023-01-18T19:08:33.147Z,7.05
2023-01-18T19:11:01.384Z,7.78
2023-01-18T19:13:30.980Z,7.72
2023-01-18T19:15:59.395Z,9.45
2023-01-18T19:18:27.804Z,6.78
2023-01-18T19:20:56.041Z,5.63
2023-01-18T19:23:24.889Z,5.15
2023-01-18T19:25:53.588Z,6.25
2023-01-18T19:28:21.869Z,7.95
2023-01-18T19:30:51.603Z,7.22
2023-01-18T19:33:19.902Z,6.35
2023-01-18T19:35:48.179Z,8.98
2023-01-18T19:38:17.014Z,9.25
2023-01-18T19:40:45.236Z,8.00
2023-01-18T19:43:13.467Z,7.03
2023-01-18T19:45:41.694Z,13.05
2023-01-18T19:48:11.278Z,4.95
2023-01-18T19:50:39.592Z,7.05
2023-01-18T19:53:07.897Z,7.82
2023-01-18T19:55:38.949Z,7.43
2023-01-18T19:58:07.481Z,9.07
2023-01-18T20:00:35.790Z,9.00
2023-01-18T20:03:04.545Z,6.80
2023-01-18T20:05:34.560Z,7.25
2023-01-18T20:08:02.844Z,10.00
2023-01-18T20:10:33.163Z,6.07
2023-01-18T20:13:01.793Z,8.90
2023-01-18T20:15:30.316Z,7.68
2023-01-18T20:17:58.570Z,7.60
2023-01-18T20:20:32.493Z,6.63
2023-01-18T20:23:04.553Z,7.35
2023-01-18T20:25:33.701Z,11.82
2023-01-18T20:28:02.164Z,7.72
2023-01-18T20:30:30.864Z,7.80
2023-01-18T20:32:59.498Z,8.93
2023-01-18T20:35:28.547Z,10.05
2023-01-18T20:37:56.843Z,8.77
2023-01-18T20:40:26.400Z,7.45
2023-01-18T20:42:54.675Z,8.23
2023-01-18T20:45:22.938Z,10.75
2023-01-18T20:47:51.235Z,9.40
2023-01-18T20:50:23.080Z,8.88
2023-01-18T20:52:51.616Z,7.97
2023-01-18T20:55:20.112Z,10.18
2023-01-18T20:57:52.076Z,11.10
2023-01-18T21:00:21.068Z,9.60
2023-01-18T21:02:50.310Z,8.52
2023-01-18T21:05:18.894Z,7.63
2023-01-18T21:07:47.190Z,12.82
2023-01-18T21:10:15.434Z,6.97
2023-01-18T21:12:43.707Z,14.38
2023-01-18T21:15:13.616Z,9.82
2023-01-18T21:17:41.893Z,10.43
2023-01-18T21:20:11.718Z,13.18
2023-01-18T21:22:39.958Z,12.30
2023-01-18T21:25:08.904Z,10.23
2023-01-18T21:27:37.179Z,9.43
2023-01-18T21:30:06.337Z,9.90
2023-01-18T21:32:35.973Z,12.18
2023-01-18T21:35:04.329Z,11.50
2023-01-18T21:37:32.647Z,17.40
2023-01-18T21:40:01.033Z,14.18
2023-01-18T21:42:47.273Z,16.15
2023-01-18T21:45:33.694Z,14.38
2023-01-18T21:48:07.532Z,18.55
2023-01-18T21:50:58.820Z,12.98
2023-01-18T21:53:41.034Z,10.95
2023-01-18T21:56:09.346Z,9.55
2023-01-18T21:58:57.891Z,14.38
2023-01-18T22:01:28.024Z,8.80
2023-01-18T22:04:15.303Z,13.88
2023-01-18T22:06:43.534Z,11.73
2023-01-18T22:09:11.825Z,14.70
2023-01-18T22:11:40.210Z,14.65
2023-01-18T22:14:09.471Z,17.23
2023-01-18T22:16:38.416Z,13.68
2023-01-18T22:19:08.245Z,16.92
2023-01-18T22:21:36.492Z,17.52
2023-01-18T22:24:05.074Z,17.52
2023-01-18T22:26:35.438Z,16.48
2023-01-18T22:29:04.540Z,15.95
2023-01-18T22:31:33.276Z,15.45
2023-01-18T22:34:03.323Z,19.55
2023-01-18T22:36:34.547Z,14.50
2023-01-18T22:39:02.930Z,15.40
2023-01-18T22:41:31.224Z,13.48
2023-01-18T22:43:59.467Z,10.18
2023-01-18T22:46:28.372Z,15.48
2023-01-18T22:48:56.743Z,14.50
2023-01-18T22:51:24.969Z,15.05
2023-01-18T22:53:56.293Z,17.13
2023-01-18T22:56:26.040Z,13.93
2023-01-18T22:58:54.561Z,12.10
2023-01-18T23:01:25.014Z,16.33
2023-01-18T23:06:21.804Z,22.55
2023-01-18T23:08:50.489Z,12.25
2023-01-18T23:11:22.010Z,13.68
2023-01-18T23:14:05.927Z,20.00
2023-01-18T23:16:52.364Z,18.38
2023-01-18T23:19:20.805Z,24.05
2023-01-18T23:21:49.224Z,15.63
2023-01-18T23:24:17.559Z,24.83
2023-01-18T23:26:47.462Z,15.18
2023-01-18T23:29:16.327Z,22.50
2023-01-18T23:31:44.741Z,20.23
2023-01-18T23:34:13.016Z,20.67
2023-01-18T23:36:41.405Z,13.82
2023-01-18T23:39:27.423Z,19.92
2023-01-18T23:42:14.714Z,17.95
2023-01-18T23:45:00.590Z,18.77
2023-01-18T23:47:46.481Z,18.63
2023-01-18T23:50:32.540Z,23.75
2023-01-18T23:53:18.592Z,26.58
2023-01-18T23:55:47.371Z,15.90
2023-01-18T23:58:16.963Z,21.95
